sensor_id;sensor_type;location;lat;lon;timestamp;pressure;altitude;pressure_sealevel;temperature;humidity
41886;BME280;27567;43.084;25.616;2023-04-02T00:09:28;97100.19;;;8.54;100.00
41886;BME280;27567;43.084;25.616;2023-04-02T00:12:16;97094.97;;;8.59;100.00
41886;BME280;27567;43.084;25.616;2023-04-02T00:15:01;97093.34;;;8.58;100.00
41886;BME280;27567;43.084;25.616;2023-04-02T00:17:45;97089.50;;;8.47;100.00
41886;BME280;27567;43.084;25.616;2023-04-02T00:20:34;97091.78;;;8.50;100.00
41886;BME280;27567;43.084;25.616;2023-04-02T00:23:19;97092.63;;;8.51;100.00
41886;BME280;27567;43.084;25.616;2023-04-02T00:29:11;97092.28;;;8.66;100.00
41886;BME280;27567;43.084;25.616;2023-04-02T00:31:57;97088.16;;;8.63;100.00
41886;BME280;27567;43.084;25.616;2023-04-02T00:34:42;97090.88;;;8.82;100.00
41886;BME280;27567;43.084;25.616;2023-04-02T00:37:28;97097.38;;;8.67;100.00
41886;BME280;27567;43.084;25.616;2023-04-02T00:40:32;97094.84;;;8.47;100.00
41886;BME280;27567;43.084;25.616;2023-04-02T00:43:17;97095.66;;;8.54;100.00
41886;BME280;27567;43.084;25.616;2023-04-02T00:46:03;97095.31;;;8.69;100.00
41886;BME280;27567;43.084;25.616;2023-04-02T00:51:56;97108.84;;;8.75;100.00
41886;BME280;27567;43.084;25.616;2023-04-02T00:54:47;97114.81;;;8.70;100.00
41886;BME280;27567;43.084;25.616;2023-04-02T00:57:33;97114.63;;;8.71;100.00
41886;BME280;27567;43.084;25.616;2023-04-02T01:00:31;97115.75;;;8.82;100.00
41886;BME280;27567;43.084;25.616;2023-04-02T01:06:03;97130.00;;;8.95;100.00
41886;BME280;27567;43.084;25.616;2023-04-02T01:24:11;97127.34;;;8.95;100.00
41886;BME280;27567;43.084;25.616;2023-04-02T01:27:00;97133.00;;;9.05;100.00
41886;BME280;27567;43.084;25.616;2023-04-02T01:29:52;97125.44;;;9.02;100.00
41886;BME280;27567;43.084;25.616;2023-04-02T01:32:41;97132.84;;;9.00;100.00
41886;BME280;27567;43.084;25.616;2023-04-02T01:35:31;97126.31;;;8.96;100.00
41886;BME280;27567;43.084;25.616;2023-04-02T01:38:26;97119.91;;;8.97;100.00
41886;BME280;27567;43.084;25.616;2023-04-02T01:41:19;97114.03;;;8.88;100.00
41886;BME280;27567;43.084;25.616;2023-04-02T01:44:16;97103.88;;;8.78;100.00
41886;BME280;27567;43.084;25.616;2023-04-02T01:47:09;97102.66;;;8.74;100.00
41886;BME280;27567;43.084;25.616;2023-04-02T01:50:04;97101.63;;;8.75;100.00
41886;BME280;27567;43.084;25.616;2023-04-02T01:52:55;97095.25;;;8.76;100.00
41886;BME280;27567;43.084;25.616;2023-04-02T01:58:30;97092.13;;;8.79;100.00
41886;BME280;27567;43.084;25.616;2023-04-02T02:01:18;97095.59;;;8.80;100.00
41886;BME280;27567;43.084;25.616;2023-04-02T02:04:04;97084.72;;;8.81;100.00
41886;BME280;27567;43.084;25.616;2023-04-02T02:06:49;97091.47;;;8.84;100.00
41886;BME280;27567;43.084;25.616;2023-04-02T02:09:34;97085.69;;;8.87;100.00
41886;BME280;27567;43.084;25.616;2023-04-02T02:12:19;97091.78;;;8.94;100.00
41886;BME280;27567;43.084;25.616;2023-04-02T02:15:03;97094.91;;;8.91;100.00
41886;BME280;27567;43.084;25.616;2023-04-02T02:17:48;97090.59;;;8.90;100.00
41886;BME280;27567;43.084;25.616;2023-04-02T02:20:33;97097.81;;;8.90;100.00
41886;BME280;27567;43.084;25.616;2023-04-02T02:23:19;97099.38;;;8.97;100.00
41886;BME280;27567;43.084;25.616;2023-04-02T02:26:05;97087.91;;;8.90;100.00
41886;BME280;27567;43.084;25.616;2023-04-02T02:28:51;97081.97;;;8.88;100.00
41886;BME280;27567;43.084;25.616;2023-04-02T02:31:37;97092.63;;;9.13;100.00
41886;BME280;27567;43.084;25.616;2023-04-02T02:34:31;97093.34;;;9.21;100.00
41886;BME280;27567;43.084;25.616;2023-04-02T02:37:25;97099.97;;;9.18;100.00
41886;BME280;27567;43.084;25.616;2023-04-02T02:40:26;97108.41;;;8.96;100.00
41886;BME280;27567;43.084;25.616;2023-04-02T02:43:13;97105.50;;;9.16;100.00
41886;BME280;27567;43.084;25.616;2023-04-02T02:45:57;97107.75;;;9.01;100.00
41886;BME280;27567;43.084;25.616;2023-04-02T02:48:42;97104.13;;;8.95;100.00
41886;BME280;27567;43.084;25.616;2023-04-02T02:51:39;97107.06;;;8.87;100.00
41886;BME280;27567;43.084;25.616;2023-04-02T02:54:26;97116.97;;;9.05;100.00
41886;BME280;27567;43.084;25.616;2023-04-02T02:57:19;97124.31;;;9.10;100.00
41886;BME280;27567;43.084;25.616;2023-04-02T03:00:07;97132.13;;;9.11;100.00
41886;BME280;27567;43.084;25.616;2023-04-02T03:02:53;97126.53;;;9.13;100.00
41886;BME280;27567;43.084;25.616;2023-04-02T03:05:40;97125.34;;;9.09;100.00
41886;BME280;27567;43.084;25.616;2023-04-02T03:08:32;97116.88;;;8.93;100.00
41886;BME280;27567;43.084;25.616;2023-04-02T03:11:30;97118.19;;;8.84;100.00
41886;BME280;27567;43.084;25.616;2023-04-02T03:14:42;97126.00;;;8.85;100.00
41886;BME280;27567;43.084;25.616;2023-04-02T03:17:35;97111.00;;;8.84;100.00
41886;BME280;27567;43.084;25.616;2023-04-02T03:25:57;97127.56;;;8.93;100.00
41886;BME280;27567;43.084;25.616;2023-04-02T03:29:03;97130.25;;;8.93;100.00
41886;BME280;27567;43.084;25.616;2023-04-02T03:31:55;97120.00;;;8.90;100.00
41886;BME280;27567;43.084;25.616;2023-04-02T03:34:45;97136.63;;;8.92;100.00
41886;BME280;27567;43.084;25.616;2023-04-02T03:37:32;97133.34;;;8.90;100.00
41886;BME280;27567;43.084;25.616;2023-04-02T03:40:21;97137.66;;;8.91;100.00
41886;BME280;27567;43.084;25.616;2023-04-02T03:43:24;97138.19;;;9.00;100.00
41886;BME280;27567;43.084;25.616;2023-04-02T03:46:38;97150.75;;;8.99;100.00
41886;BME280;27567;43.084;25.616;2023-04-02T03:49:37;97150.16;;;8.97;100.00
41886;BME280;27567;43.084;25.616;2023-04-02T03:52:25;97152.00;;;9.15;100.00
41886;BME280;27567;43.084;25.616;2023-04-02T03:55:13;97152.53;;;9.06;100.00
41886;BME280;27567;43.084;25.616;2023-04-02T03:58:15;97155.34;;;9.11;100.00
41886;BME280;27567;43.084;25.616;2023-04-02T04:03:49;97159.38;;;9.20;100.00
41886;BME280;27567;43.084;25.616;2023-04-02T04:06:36;97168.28;;;9.14;100.00
41886;BME280;27567;43.084;25.616;2023-04-02T04:09:31;97171.78;;;9.14;100.00
41886;BME280;27567;43.084;25.616;2023-04-02T04:12:35;97170.38;;;9.12;100.00
41886;BME280;27567;43.084;25.616;2023-04-02T04:15:27;97172.84;;;9.13;100.00
41886;BME280;27567;43.084;25.616;2023-04-02T04:18:26;97186.13;;;9.20;100.00
41886;BME280;27567;43.084;25.616;2023-04-02T04:21:27;97187.16;;;9.19;100.00
41886;BME280;27567;43.084;25.616;2023-04-02T04:24:23;97196.16;;;9.25;100.00
41886;BME280;27567;43.084;25.616;2023-04-02T04:30:04;97190.59;;;9.45;100.00
41886;BME280;27567;43.084;25.616;2023-04-02T04:33:00;97189.50;;;9.53;100.00
41886;BME280;27567;43.084;25.616;2023-04-02T04:35:58;97193.22;;;9.52;100.00
41886;BME280;27567;43.084;25.616;2023-04-02T04:38:46;97191.13;;;9.54;100.00
41886;BME280;27567;43.084;25.616;2023-04-02T04:41:38;97198.13;;;9.55;100.00
41886;BME280;27567;43.084;25.616;2023-04-02T04:47:32;97201.97;;;9.59;100.00
41886;BME280;27567;43.084;25.616;2023-04-02T04:50:38;97212.53;;;9.54;100.00
41886;BME280;27567;43.084;25.616;2023-04-02T04:53:25;97211.50;;;9.55;100.00
41886;BME280;27567;43.084;25.616;2023-04-02T04:56:10;97211.19;;;9.63;100.00
41886;BME280;27567;43.084;25.616;2023-04-02T04:59:26;97206.38;;;9.72;100.00
41886;BME280;27567;43.084;25.616;2023-04-02T05:02:16;97209.16;;;9.77;100.00
41886;BME280;27567;43.084;25.616;2023-04-02T05:05:02;97208.66;;;9.87;100.00
41886;BME280;27567;43.084;25.616;2023-04-02T05:07:50;97219.00;;;9.83;100.00
41886;BME280;27567;43.084;25.616;2023-04-02T05:10:47;97219.00;;;9.83;100.00
41886;BME280;27567;43.084;25.616;2023-04-02T05:13:34;97221.38;;;9.91;100.00
41886;BME280;27567;43.084;25.616;2023-04-02T05:16:29;97229.75;;;9.95;100.00
41886;BME280;27567;43.084;25.616;2023-04-02T05:19:24;97220.53;;;9.91;100.00
41886;BME280;27567;43.084;25.616;2023-04-02T05:22:18;97229.25;;;9.86;100.00
41886;BME280;27567;43.084;25.616;2023-04-02T05:25:28;97225.09;;;9.90;100.00
41886;BME280;27567;43.084;25.616;2023-04-02T05:31:24;97245.97;;;10.00;100.00
41886;BME280;27567;43.084;25.616;2023-04-02T05:34:10;97245.88;;;10.07;100.00
41886;BME280;27567;43.084;25.616;2023-04-02T05:36:55;97260.56;;;10.04;100.00
41886;BME280;27567;43.084;25.616;2023-04-02T05:39:43;97261.13;;;10.25;100.00
41886;BME280;27567;43.084;25.616;2023-04-02T05:42:30;97264.38;;;10.27;100.00
41886;BME280;27567;43.084;25.616;2023-04-02T05:45:19;97266.75;;;10.35;100.00
41886;BME280;27567;43.084;25.616;2023-04-02T05:50:59;97264.03;;;10.42;100.00
41886;BME280;27567;43.084;25.616;2023-04-02T05:53:57;97251.63;;;10.60;100.00
41886;BME280;27567;43.084;25.616;2023-04-02T05:56:46;97266.69;;;10.73;100.00
41886;BME280;27567;43.084;25.616;2023-04-02T05:59:36;97270.16;;;10.73;100.00
41886;BME280;27567;43.084;25.616;2023-04-02T06:05:16;97271.50;;;10.82;100.00
41886;BME280;27567;43.084;25.616;2023-04-02T06:08:31;97273.69;;;10.74;100.00
41886;BME280;27567;43.084;25.616;2023-04-02T06:11:22;97273.34;;;10.70;100.00
41886;BME280;27567;43.084;25.616;2023-04-02T06:14:13;97281.81;;;11.09;100.00
41886;BME280;27567;43.084;25.616;2023-04-02T06:16:58;97284.97;;;11.30;100.00
41886;BME280;27567;43.084;25.616;2023-04-02T06:19:43;97276.31;;;11.04;100.00
41886;BME280;27567;43.084;25.616;2023-04-02T06:22:38;97275.88;;;11.19;100.00
41886;BME280;27567;43.084;25.616;2023-04-02T06:25:28;97287.66;;;11.30;100.00
41886;BME280;27567;43.084;25.616;2023-04-02T06:28:19;97277.19;;;11.52;100.00
41886;BME280;27567;43.084;25.616;2023-04-02T06:31:06;97282.31;;;11.54;100.00
41886;BME280;27567;43.084;25.616;2023-04-02T06:33:50;97279.03;;;11.64;100.00
41886;BME280;27567;43.084;25.616;2023-04-02T06:36:37;97270.16;;;11.75;100.00
41886;BME280;27567;43.084;25.616;2023-04-02T06:39:24;97278.50;;;12.14;100.00
41886;BME280;27567;43.084;25.616;2023-04-02T06:42:12;97278.28;;;12.04;100.00
41886;BME280;27567;43.084;25.616;2023-04-02T06:44:58;97284.97;;;11.90;100.00
41886;BME280;27567;43.084;25.616;2023-04-02T06:47:44;97279.84;;;11.88;100.00
41886;BME280;27567;43.084;25.616;2023-04-02T06:50:47;97296.28;;;11.92;100.00
41886;BME280;27567;43.084;25.616;2023-04-02T06:53:43;97297.06;;;12.16;100.00
41886;BME280;27567;43.084;25.616;2023-04-02T06:59:32;97298.94;;;12.27;100.00
41886;BME280;27567;43.084;25.616;2023-04-02T07:05:09;97294.84;;;12.25;100.00
41886;BME280;27567;43.084;25.616;2023-04-02T07:07:54;97299.31;;;12.07;100.00
41886;BME280;27567;43.084;25.616;2023-04-02T07:10:38;97333.66;;;12.05;100.00
41886;BME280;27567;43.084;25.616;2023-04-02T07:13:23;97321.84;;;11.94;100.00
41886;BME280;27567;43.084;25.616;2023-04-02T07:16:16;97319.88;;;12.13;100.00
41886;BME280;27567;43.084;25.616;2023-04-02T07:19:01;97325.50;;;12.12;100.00
41886;BME280;27567;43.084;25.616;2023-04-02T07:21:47;97341.25;;;12.08;100.00
41886;BME280;27567;43.084;25.616;2023-04-02T07:24:31;97331.22;;;12.03;100.00
41886;BME280;27567;43.084;25.616;2023-04-02T07:27:15;97325.81;;;12.15;100.00
41886;BME280;27567;43.084;25.616;2023-04-02T07:29:59;97337.34;;;12.40;100.00
41886;BME280;27567;43.084;25.616;2023-04-02T07:32:43;97336.69;;;12.21;100.00
41886;BME280;27567;43.084;25.616;2023-04-02T07:35:27;97345.31;;;12.35;100.00
41886;BME280;27567;43.084;25.616;2023-04-02T07:38:12;97353.34;;;12.46;100.00
41886;BME280;27567;43.084;25.616;2023-04-02T07:40:56;97349.22;;;12.44;100.00
41886;BME280;27567;43.084;25.616;2023-04-02T07:43:41;97336.13;;;12.59;100.00
41886;BME280;27567;43.084;25.616;2023-04-02T07:46:25;97357.44;;;12.78;100.00
41886;BME280;27567;43.084;25.616;2023-04-02T07:49:09;97341.97;;;12.85;100.00
41886;BME280;27567;43.084;25.616;2023-04-02T07:51:53;97347.84;;;12.82;100.00
41886;BME280;27567;43.084;25.616;2023-04-02T07:54:37;97339.59;;;13.18;100.00
41886;BME280;27567;43.084;25.616;2023-04-02T07:57:22;97337.03;;;13.96;100.00
41886;BME280;27567;43.084;25.616;2023-04-02T08:00:09;97340.72;;;14.30;100.00
41886;BME280;27567;43.084;25.616;2023-04-02T08:02:55;97354.09;;;14.19;100.00
41886;BME280;27567;43.084;25.616;2023-04-02T08:05:42;97340.50;;;14.31;100.00
41886;BME280;27567;43.084;25.616;2023-04-02T08:08:29;97332.00;;;14.67;100.00
41886;BME280;27567;43.084;25.616;2023-04-02T08:11:14;97334.25;;;14.31;100.00
41886;BME280;27567;43.084;25.616;2023-04-02T08:13:59;97360.13;;;14.71;100.00
41886;BME280;27567;43.084;25.616;2023-04-02T08:16:53;97343.53;;;14.62;100.00
41886;BME280;27567;43.084;25.616;2023-04-02T08:19:38;97354.13;;;14.02;100.00
41886;BME280;27567;43.084;25.616;2023-04-02T08:22:23;97355.59;;;13.76;100.00
41886;BME280;27567;43.084;25.616;2023-04-02T08:25:11;97339.41;;;14.54;100.00
41886;BME280;27567;43.084;25.616;2023-04-02T08:27:55;97340.03;;;14.62;100.00
41886;BME280;27567;43.084;25.616;2023-04-02T08:30:40;97340.66;;;14.91;100.00
41886;BME280;27567;43.084;25.616;2023-04-02T08:33:25;97343.22;;;14.58;100.00
41886;BME280;27567;43.084;25.616;2023-04-02T08:36:15;97334.72;;;14.45;100.00
41886;BME280;27567;43.084;25.616;2023-04-02T08:38:59;97329.88;;;14.47;100.00
41886;BME280;27567;43.084;25.616;2023-04-02T08:41:57;97346.88;;;14.47;100.00
41886;BME280;27567;43.084;25.616;2023-04-02T08:47:55;97349.78;;;14.01;100.00
41886;BME280;27567;43.084;25.616;2023-04-02T08:50:44;97340.84;;;14.18;100.00
41886;BME280;27567;43.084;25.616;2023-04-02T08:53:34;97351.81;;;14.11;100.00
41886;BME280;27567;43.084;25.616;2023-04-02T08:56:43;97337.34;;;14.17;100.00
41886;BME280;27567;43.084;25.616;2023-04-02T08:59:37;97364.63;;;14.43;100.00
41886;BME280;27567;43.084;25.616;2023-04-02T09:02:42;97343.69;;;14.72;100.00
41886;BME280;27567;43.084;25.616;2023-04-02T09:05:32;97352.59;;;15.60;100.00
41886;BME280;27567;43.084;25.616;2023-04-02T09:08:22;97353.06;;;15.20;100.00
41886;BME280;27567;43.084;25.616;2023-04-02T09:11:24;97345.34;;;15.28;100.00
41886;BME280;27567;43.084;25.616;2023-04-02T09:14:18;97354.25;;;15.01;100.00
41886;BME280;27567;43.084;25.616;2023-04-02T09:17:14;97361.16;;;14.92;100.00
41886;BME280;27567;43.084;25.616;2023-04-02T09:20:23;97349.25;;;15.15;100.00
41886;BME280;27567;43.084;25.616;2023-04-02T09:23:17;97351.44;;;15.18;100.00
41886;BME280;27567;43.084;25.616;2023-04-02T09:26:19;97356.78;;;14.64;100.00
41886;BME280;27567;43.084;25.616;2023-04-02T09:32:24;97360.22;;;14.59;100.00
41886;BME280;27567;43.084;25.616;2023-04-02T09:35:21;97367.38;;;14.93;100.00
41886;BME280;27567;43.084;25.616;2023-04-02T09:43:45;97375.16;;;14.67;100.00
41886;BME280;27567;43.084;25.616;2023-04-02T09:46:29;97355.22;;;14.46;100.00
41886;BME280;27567;43.084;25.616;2023-04-02T09:49:15;97359.53;;;14.47;100.00
41886;BME280;27567;43.084;25.616;2023-04-02T09:58:13;97375.97;;;14.23;100.00
41886;BME280;27567;43.084;25.616;2023-04-02T10:00:57;97382.41;;;14.22;100.00
41886;BME280;27567;43.084;25.616;2023-04-02T10:03:42;97363.28;;;14.23;100.00
41886;BME280;27567;43.084;25.616;2023-04-02T10:06:27;97371.66;;;14.44;100.00
41886;BME280;27567;43.084;25.616;2023-04-02T10:09:31;97373.88;;;14.69;100.00
41886;BME280;27567;43.084;25.616;2023-04-02T10:12:15;97375.28;;;14.55;100.00
41886;BME280;27567;43.084;25.616;2023-04-02T10:15:00;97378.50;;;14.52;100.00
41886;BME280;27567;43.084;25.616;2023-04-02T10:17:56;97376.81;;;14.68;100.00
41886;BME280;27567;43.084;25.616;2023-04-02T10:20:44;97362.97;;;15.74;100.00
41886;BME280;27567;43.084;25.616;2023-04-02T10:23:29;97361.16;;;18.36;81.27
41886;BME280;27567;43.084;25.616;2023-04-02T10:33:10;97374.19;;;15.28;100.00
41886;BME280;27567;43.084;25.616;2023-04-02T10:42:37;97367.56;;;16.70;83.65
41886;BME280;27567;43.084;25.616;2023-04-02T10:45:56;97361.72;;;16.25;88.25
41886;BME280;27567;43.084;25.616;2023-04-02T10:54:51;97357.06;;;15.82;83.16
41886;BME280;27567;43.084;25.616;2023-04-02T11:00:32;97368.09;;;16.66;90.00
41886;BME280;27567;43.084;25.616;2023-04-02T11:03:33;97371.69;;;16.24;87.49
41886;BME280;27567;43.084;25.616;2023-04-02T11:09:14;97359.34;;;17.49;72.48
41886;BME280;27567;43.084;25.616;2023-04-02T11:12:00;97366.88;;;17.00;77.13
41886;BME280;27567;43.084;25.616;2023-04-02T11:15:13;97360.41;;;17.06;66.58
41886;BME280;27567;43.084;25.616;2023-04-02T11:17:59;97362.88;;;17.28;64.27
41886;BME280;27567;43.084;25.616;2023-04-02T11:23:33;97360.66;;;18.24;65.85
41886;BME280;27567;43.084;25.616;2023-04-02T11:26:40;97368.56;;;17.32;69.13
41886;BME280;27567;43.084;25.616;2023-04-02T11:29:30;97353.91;;;17.12;73.11
41886;BME280;27567;43.084;25.616;2023-04-02T11:40:58;97338.94;;;23.89;40.59
41886;BME280;27567;43.084;25.616;2023-04-02T11:43:46;97327.66;;;24.13;38.99
41886;BME280;27567;43.084;25.616;2023-04-02T11:46:38;97335.72;;;22.40;40.77
41886;BME280;27567;43.084;25.616;2023-04-02T11:49:33;97335.50;;;22.64;42.76
41886;BME280;27567;43.084;25.616;2023-04-02T11:52:22;97332.78;;;22.64;40.16
41886;BME280;27567;43.084;25.616;2023-04-02T11:55:28;97321.06;;;24.64;36.98
41886;BME280;27567;43.084;25.616;2023-04-02T12:05:46;97354.53;;;18.68;55.03
41886;BME280;27567;43.084;25.616;2023-04-02T12:11:00;97345.38;;;19.09;56.16
41886;BME280;27567;43.084;25.616;2023-04-02T12:13:47;97338.44;;;21.46;45.73
41886;BME280;27567;43.084;25.616;2023-04-02T12:16:33;97330.06;;;23.61;41.20
41886;BME280;27567;43.084;25.616;2023-04-02T12:19:17;97326.97;;;21.96;45.43
41886;BME280;27567;43.084;25.616;2023-04-02T12:22:01;97323.84;;;21.04;44.56
41886;BME280;27567;43.084;25.616;2023-04-02T12:24:47;97324.06;;;19.61;49.51
41886;BME280;27567;43.084;25.616;2023-04-02T12:27:33;97328.34;;;18.32;55.66
41886;BME280;27567;43.084;25.616;2023-04-02T12:30:22;97346.06;;;17.06;64.08
41886;BME280;27567;43.084;25.616;2023-04-02T12:36:22;97330.63;;;17.17;59.17
41886;BME280;27567;43.084;25.616;2023-04-02T12:39:16;97321.34;;;19.91;50.63
41886;BME280;27567;43.084;25.616;2023-04-02T12:42:00;97316.06;;;21.49;45.43
41886;BME280;27567;43.084;25.616;2023-04-02T12:44:48;97319.84;;;21.67;45.21
41886;BME280;27567;43.084;25.616;2023-04-02T12:47:32;97315.41;;;21.71;43.99
41886;BME280;27567;43.084;25.616;2023-04-02T12:50:16;97314.47;;;22.23;43.38
41886;BME280;27567;43.084;25.616;2023-04-02T12:53:01;97302.47;;;23.71;40.08
41886;BME280;27567;43.084;25.616;2023-04-02T12:55:48;97303.97;;;22.16;40.55
41886;BME280;27567;43.084;25.616;2023-04-02T12:58:39;97316.38;;;21.95;42.24
41886;BME280;27567;43.084;25.616;2023-04-02T13:01:26;97314.44;;;19.74;46.15
41886;BME280;27567;43.084;25.616;2023-04-02T13:04:11;97317.53;;;18.22;50.09
41886;BME280;27567;43.084;25.616;2023-04-02T13:06:55;97324.97;;;19.51;48.04
41886;BME280;27567;43.084;25.616;2023-04-02T13:09:44;97324.81;;;18.32;51.33
41886;BME280;27567;43.084;25.616;2023-04-02T13:12:35;97310.66;;;19.41;48.19
41886;BME280;27567;43.084;25.616;2023-04-02T13:15:26;97312.16;;;22.16;43.17
41886;BME280;27567;43.084;25.616;2023-04-02T13:21:00;97317.94;;;21.48;41.08
41886;BME280;27567;43.084;25.616;2023-04-02T13:23:46;97313.91;;;21.79;40.03
41886;BME280;27567;43.084;25.616;2023-04-02T13:26:30;97318.41;;;21.89;39.45
41886;BME280;27567;43.084;25.616;2023-04-02T13:32:05;97293.22;;;22.34;39.87
41886;BME280;27567;43.084;25.616;2023-04-02T13:34:49;97296.13;;;21.48;39.26
41886;BME280;27567;43.084;25.616;2023-04-02T13:37:33;97276.19;;;23.16;37.04
41886;BME280;27567;43.084;25.616;2023-04-02T13:40:17;97285.72;;;23.72;35.48
41886;BME280;27567;43.084;25.616;2023-04-02T13:43:02;97278.41;;;22.91;37.02
41886;BME280;27567;43.084;25.616;2023-04-02T13:45:51;97310.94;;;21.09;38.93
41886;BME280;27567;43.084;25.616;2023-04-02T13:48:37;97302.63;;;21.86;37.83
41886;BME280;27567;43.084;25.616;2023-04-02T13:51:51;97315.84;;;21.79;38.53
41886;BME280;27567;43.084;25.616;2023-04-02T13:54:48;97294.53;;;22.64;36.47
41886;BME280;27567;43.084;25.616;2023-04-02T13:57:33;97300.28;;;22.77;37.20
41886;BME280;27567;43.084;25.616;2023-04-02T14:00:18;97303.94;;;22.72;36.81
41886;BME280;27567;43.084;25.616;2023-04-02T14:03:10;97295.75;;;22.02;36.86
41886;BME280;27567;43.084;25.616;2023-04-02T14:06:12;97308.53;;;23.36;35.36
41886;BME280;27567;43.084;25.616;2023-04-02T14:11:54;97314.13;;;19.46;44.64
41886;BME280;27567;43.084;25.616;2023-04-02T14:18:09;97329.28;;;17.24;53.67
41886;BME280;27567;43.084;25.616;2023-04-02T14:21:28;97315.34;;;16.69;60.39
41886;BME280;27567;43.084;25.616;2023-04-02T14:27:46;97316.91;;;16.55;65.20
41886;BME280;27567;43.084;25.616;2023-04-02T14:34:08;97315.13;;;16.12;69.53
41886;BME280;27567;43.084;25.616;2023-04-02T14:37:11;97312.53;;;15.85;69.95
41886;BME280;27567;43.084;25.616;2023-04-02T14:43:25;97313.50;;;16.11;69.68
41886;BME280;27567;43.084;25.616;2023-04-02T14:46:10;97311.91;;;16.15;70.83
41886;BME280;27567;43.084;25.616;2023-04-02T14:49:03;97304.06;;;16.19;70.07
41886;BME280;27567;43.084;25.616;2023-04-02T14:51:58;97312.47;;;16.28;66.94
41886;BME280;27567;43.084;25.616;2023-04-02T14:55:23;97309.84;;;16.43;69.75
41886;BME280;27567;43.084;25.616;2023-04-02T14:58:18;97311.41;;;16.23;67.15
41886;BME280;27567;43.084;25.616;2023-04-02T15:04:07;97325.94;;;16.12;69.10
41886;BME280;27567;43.084;25.616;2023-04-02T15:07:00;97323.72;;;16.04;71.10
41886;BME280;27567;43.084;25.616;2023-04-02T15:10:28;97323.44;;;16.00;70.04
41886;BME280;27567;43.084;25.616;2023-04-02T15:12:54;97316.09;;;15.90;73.50
41886;BME280;27567;43.084;25.616;2023-04-02T15:15:55;97322.22;;;15.81;74.05
41886;BME280;27567;43.084;25.616;2023-04-02T15:18:41;97324.03;;;15.70;73.48
41886;BME280;27567;43.084;25.616;2023-04-02T15:30:53;97334.53;;;15.66;72.57
41886;BME280;27567;43.084;25.616;2023-04-02T15:33:43;97339.41;;;15.69;75.37
41886;BME280;27567;43.084;25.616;2023-04-02T15:39:40;97337.72;;;15.58;75.26
41886;BME280;27567;43.084;25.616;2023-04-02T15:42:37;97336.75;;;15.37;73.07
41886;BME280;27567;43.084;25.616;2023-04-02T15:45:34;97341.84;;;15.33;75.95
41886;BME280;27567;43.084;25.616;2023-04-02T16:03:19;97367.38;;;14.93;83.24
41886;BME280;27567;43.084;25.616;2023-04-02T16:09:21;97362.94;;;14.81;84.97
41886;BME280;27567;43.084;25.616;2023-04-02T16:12:16;97368.47;;;14.69;85.99
41886;BME280;27567;43.084;25.616;2023-04-02T16:15:13;97370.84;;;14.66;84.18
41886;BME280;27567;43.084;25.616;2023-04-02T16:18:04;97375.53;;;14.53;86.37
41886;BME280;27567;43.084;25.616;2023-04-02T16:20:52;97374.97;;;14.51;85.48
41886;BME280;27567;43.084;25.616;2023-04-02T16:23:38;97377.38;;;14.70;81.90
41886;BME280;27567;43.084;25.616;2023-04-02T16:35:28;97391.13;;;14.29;83.17
41886;BME280;27567;43.084;25.616;2023-04-02T16:38:35;97389.47;;;14.06;86.16
41886;BME280;27567;43.084;25.616;2023-04-02T16:44:40;97386.84;;;13.94;86.33
41886;BME280;27567;43.084;25.616;2023-04-02T17:09:08;97405.56;;;12.91;100.00
41886;BME280;27567;43.084;25.616;2023-04-02T17:12:08;97412.41;;;12.70;100.00
41886;BME280;27567;43.084;25.616;2023-04-02T17:15:01;97415.72;;;12.60;100.00
41886;BME280;27567;43.084;25.616;2023-04-02T17:17:52;97407.09;;;12.46;100.00
41886;BME280;27567;43.084;25.616;2023-04-02T17:20:37;97424.50;;;12.44;100.00
41886;BME280;27567;43.084;25.616;2023-04-02T17:23:23;97426.38;;;12.43;100.00
41886;BME280;27567;43.084;25.616;2023-04-02T17:26:08;97425.94;;;12.35;100.00
41886;BME280;27567;43.084;25.616;2023-04-02T17:28:53;97435.63;;;12.36;100.00
41886;BME280;27567;43.084;25.616;2023-04-02T17:31:38;97429.56;;;12.28;100.00
41886;BME280;27567;43.084;25.616;2023-04-02T17:34:24;97438.66;;;12.27;100.00
41886;BME280;27567;43.084;25.616;2023-04-02T17:37:33;97444.03;;;12.27;100.00
41886;BME280;27567;43.084;25.616;2023-04-02T17:40:28;97447.78;;;12.26;100.00
41886;BME280;27567;43.084;25.616;2023-04-02T18:10:02;97487.44;;;11.46;100.00
41886;BME280;27567;43.084;25.616;2023-04-02T18:13:05;97482.25;;;11.63;100.00
41886;BME280;27567;43.084;25.616;2023-04-02T18:25:08;97507.25;;;11.15;100.00
41886;BME280;27567;43.084;25.616;2023-04-02T18:31:37;97520.03;;;11.01;100.00
41886;BME280;27567;43.084;25.616;2023-04-02T18:34:50;97518.56;;;11.35;100.00
41886;BME280;27567;43.084;25.616;2023-04-02T18:46:57;97525.50;;;11.55;100.00
41886;BME280;27567;43.084;25.616;2023-04-02T18:49:50;97530.38;;;11.46;100.00
41886;BME280;27567;43.084;25.616;2023-04-02T18:52:41;97532.72;;;11.42;100.00
41886;BME280;27567;43.084;25.616;2023-04-02T18:55:28;97528.97;;;11.43;100.00
41886;BME280;27567;43.084;25.616;2023-04-02T18:58:25;97539.63;;;11.50;100.00
41886;BME280;27567;43.084;25.616;2023-04-02T19:01:15;97530.75;;;11.50;100.00
41886;BME280;27567;43.084;25.616;2023-04-02T19:04:07;97540.13;;;11.59;100.00
41886;BME280;27567;43.084;25.616;2023-04-02T19:07:04;97540.28;;;11.46;100.00
41886;BME280;27567;43.084;25.616;2023-04-02T19:09:50;97535.25;;;11.37;100.00
41886;BME280;27567;43.084;25.616;2023-04-02T19:12:35;97534.47;;;11.49;100.00
41886;BME280;27567;43.084;25.616;2023-04-02T19:15:33;97537.88;;;11.25;100.00
41886;BME280;27567;43.084;25.616;2023-04-02T19:25:20;97541.63;;;11.06;100.00